Emerywood, North Carolina
Current Conditions -  °F | °C
As of 8:54 AM on Sunday 23 Nov 2014 (Local Time) from KGSO Reporting Station
Overcast Overcast  
Wind Chill: 46°   Ceiling: 7000
Heat Index: 46°   Visibility: 8mi
Dew Point: 28°   Wind: 0mph
Humidity: 50%   Direction: NA
Pressure: 30.21"   Gusts: NA
Location:  35.9619°N, 80.0393°W
Report Text: KGSO 231354Z 00000KT 8SM FEW010 OVC070 08/M02 A3021 RMK AO2 SLP232 T00781022
Loading
Personal Weather Stations






























Interactive Weather Map New forecast layout! Learn more

10-Day Weather Forecast

Advertisements
Track Severe Weather on mobile